sensor_id;sensor_type;location;lat;lon;timestamp;temperature;humidity
21445;DHT22;10883;51.946;20.140;2023-01-25T00:01:51;1.90;99.90
21445;DHT22;10883;51.946;20.140;2023-01-25T00:04:20;1.90;99.90
21445;DHT22;10883;51.946;20.140;2023-01-25T00:06:47;1.80;99.90
21445;DHT22;10883;51.946;20.140;2023-01-25T00:09:13;1.80;99.90
21445;DHT22;10883;51.946;20.140;2023-01-25T00:11:39;1.80;99.90
21445;DHT22;10883;51.946;20.140;2023-01-25T00:14:05;1.80;99.90
21445;DHT22;10883;51.946;20.140;2023-01-25T00:16:31;1.80;99.90
21445;DHT22;10883;51.946;20.140;2023-01-25T00:18:57;1.80;99.90
21445;DHT22;10883;51.946;20.140;2023-01-25T00:21:25;1.80;99.90
21445;DHT22;10883;51.946;20.140;2023-01-25T00:23:51;1.80;99.90
21445;DHT22;10883;51.946;20.140;2023-01-25T00:26:17;1.80;99.90
21445;DHT22;10883;51.946;20.140;2023-01-25T00:28:54;1.80;99.90
21445;DHT22;10883;51.946;20.140;2023-01-25T00:37:00;1.70;99.90
21445;DHT22;10883;51.946;20.140;2023-01-25T00:39:27;1.70;99.90
21445;DHT22;10883;51.946;20.140;2023-01-25T00:41:53;1.70;99.90
21445;DHT22;10883;51.946;20.140;2023-01-25T00:44:19;1.70;99.90
21445;DHT22;10883;51.946;20.140;2023-01-25T00:46:45;1.70;99.90
21445;DHT22;10883;51.946;20.140;2023-01-25T00:49:22;1.70;99.90
21445;DHT22;10883;51.946;20.140;2023-01-25T00:51:48;1.60;99.90
21445;DHT22;10883;51.946;20.140;2023-01-25T00:54:15;1.60;99.90
21445;DHT22;10883;51.946;20.140;2023-01-25T00:56:40;1.60;99.90
21445;DHT22;10883;51.946;20.140;2023-01-25T00:59:06;1.60;99.90
21445;DHT22;10883;51.946;20.140;2023-01-25T01:01:33;1.70;99.90
21445;DHT22;10883;51.946;20.140;2023-01-25T01:03:59;1.60;99.90
21445;DHT22;10883;51.946;20.140;2023-01-25T01:06:25;1.60;99.90
21445;DHT22;10883;51.946;20.140;2023-01-25T01:08:50;1.60;99.90
21445;DHT22;10883;51.946;20.140;2023-01-25T01:11:16;1.60;99.90
21445;DHT22;10883;51.946;20.140;2023-01-25T01:13:42;1.60;99.90
21445;DHT22;10883;51.946;20.140;2023-01-25T01:16:09;1.60;99.90
21445;DHT22;10883;51.946;20.140;2023-01-25T01:18:38;1.60;99.90
21445;DHT22;10883;51.946;20.140;2023-01-25T01:21:05;1.50;99.90
21445;DHT22;10883;51.946;20.140;2023-01-25T01:23:32;1.50;99.90
21445;DHT22;10883;51.946;20.140;2023-01-25T01:25:59;1.50;99.90
21445;DHT22;10883;51.946;20.140;2023-01-25T01:28:29;1.50;99.90
21445;DHT22;10883;51.946;20.140;2023-01-25T01:30:59;1.50;99.90
21445;DHT22;10883;51.946;20.140;2023-01-25T01:33:25;1.50;99.90
21445;DHT22;10883;51.946;20.140;2023-01-25T01:35:51;1.50;99.90
21445;DHT22;10883;51.946;20.140;2023-01-25T01:38:17;1.40;99.90
21445;DHT22;10883;51.946;20.140;2023-01-25T01:40:46;1.40;99.90
21445;DHT22;10883;51.946;20.140;2023-01-25T01:43:17;1.40;99.90
21445;DHT22;10883;51.946;20.140;2023-01-25T01:50:52;1.30;99.90
21445;DHT22;10883;51.946;20.140;2023-01-25T01:53:21;1.30;99.90
21445;DHT22;10883;51.946;20.140;2023-01-25T01:55:49;1.20;99.90
21445;DHT22;10883;51.946;20.140;2023-01-25T01:58:15;1.20;99.90
21445;DHT22;10883;51.946;20.140;2023-01-25T02:00:41;1.20;99.90
21445;DHT22;10883;51.946;20.140;2023-01-25T02:03:08;1.10;99.90
21445;DHT22;10883;51.946;20.140;2023-01-25T02:05:50;1.10;99.90
21445;DHT22;10883;51.946;20.140;2023-01-25T02:08:19;1.10;99.90
21445;DHT22;10883;51.946;20.140;2023-01-25T02:10:46;1.10;99.90
21445;DHT22;10883;51.946;20.140;2023-01-25T02:13:13;1.10;99.90
21445;DHT22;10883;51.946;20.140;2023-01-25T02:15:45;1.10;99.90
21445;DHT22;10883;51.946;20.140;2023-01-25T02:18:12;1.10;99.90
21445;DHT22;10883;51.946;20.140;2023-01-25T02:20:49;1.10;99.90
21445;DHT22;10883;51.946;20.140;2023-01-25T02:25:56;1.20;99.90
21445;DHT22;10883;51.946;20.140;2023-01-25T02:28:39;1.10;99.90
21445;DHT22;10883;51.946;20.140;2023-01-25T02:31:08;1.10;99.90
21445;DHT22;10883;51.946;20.140;2023-01-25T02:33:34;1.10;99.90
21445;DHT22;10883;51.946;20.140;2023-01-25T02:36:21;1.10;99.90
21445;DHT22;10883;51.946;20.140;2023-01-25T02:38:55;1.10;99.90
21445;DHT22;10883;51.946;20.140;2023-01-25T02:41:37;1.10;99.90
21445;DHT22;10883;51.946;20.140;2023-01-25T02:44:09;1.10;99.90
21445;DHT22;10883;51.946;20.140;2023-01-25T02:46:37;1.10;99.90
21445;DHT22;10883;51.946;20.140;2023-01-25T02:49:05;1.20;99.90
21445;DHT22;10883;51.946;20.140;2023-01-25T02:51:34;1.20;99.90
21445;DHT22;10883;51.946;20.140;2023-01-25T02:54:02;1.20;99.90
21445;DHT22;10883;51.946;20.140;2023-01-25T02:56:28;1.20;99.90
21445;DHT22;10883;51.946;20.140;2023-01-25T02:58:54;1.10;99.90
21445;DHT22;10883;51.946;20.140;2023-01-25T03:01:20;1.20;99.90
21445;DHT22;10883;51.946;20.140;2023-01-25T03:03:46;1.10;99.90
21445;DHT22;10883;51.946;20.140;2023-01-25T03:06:12;1.20;99.90
21445;DHT22;10883;51.946;20.140;2023-01-25T03:08:38;1.10;99.90
21445;DHT22;10883;51.946;20.140;2023-01-25T03:11:05;1.10;99.90
21445;DHT22;10883;51.946;20.140;2023-01-25T03:13:31;1.10;99.90
21445;DHT22;10883;51.946;20.140;2023-01-25T03:16:00;1.10;99.90
21445;DHT22;10883;51.946;20.140;2023-01-25T03:18:26;1.10;99.90
21445;DHT22;10883;51.946;20.140;2023-01-25T03:20:51;1.00;99.90
21445;DHT22;10883;51.946;20.140;2023-01-25T03:23:17;1.00;99.90
21445;DHT22;10883;51.946;20.140;2023-01-25T03:25:43;1.00;99.90
21445;DHT22;10883;51.946;20.140;2023-01-25T03:28:08;1.00;99.90
21445;DHT22;10883;51.946;20.140;2023-01-25T03:30:34;1.00;99.90
21445;DHT22;10883;51.946;20.140;2023-01-25T03:33:00;1.00;99.90
21445;DHT22;10883;51.946;20.140;2023-01-25T03:35:26;1.00;99.90
21445;DHT22;10883;51.946;20.140;2023-01-25T03:37:51;0.90;99.90
21445;DHT22;10883;51.946;20.140;2023-01-25T03:40:17;0.90;99.90
21445;DHT22;10883;51.946;20.140;2023-01-25T03:42:43;0.90;99.90
21445;DHT22;10883;51.946;20.140;2023-01-25T03:45:09;0.90;99.90
21445;DHT22;10883;51.946;20.140;2023-01-25T03:47:39;0.90;99.90
21445;DHT22;10883;51.946;20.140;2023-01-25T03:50:05;0.90;99.90
21445;DHT22;10883;51.946;20.140;2023-01-25T03:52:36;0.90;99.90
21445;DHT22;10883;51.946;20.140;2023-01-25T03:55:07;0.90;99.90
21445;DHT22;10883;51.946;20.140;2023-01-25T03:57:33;0.90;99.90
21445;DHT22;10883;51.946;20.140;2023-01-25T03:59:58;0.90;99.90
21445;DHT22;10883;51.946;20.140;2023-01-25T04:02:24;0.90;99.90
21445;DHT22;10883;51.946;20.140;2023-01-25T04:04:50;0.90;99.90
21445;DHT22;10883;51.946;20.140;2023-01-25T04:07:15;0.90;99.90
21445;DHT22;10883;51.946;20.140;2023-01-25T04:09:41;0.90;99.90
21445;DHT22;10883;51.946;20.140;2023-01-25T04:12:07;0.80;99.90
21445;DHT22;10883;51.946;20.140;2023-01-25T04:14:33;0.80;99.90
21445;DHT22;10883;51.946;20.140;2023-01-25T04:16:58;0.90;99.90
21445;DHT22;10883;51.946;20.140;2023-01-25T04:19:24;0.90;99.90
21445;DHT22;10883;51.946;20.140;2023-01-25T04:21:50;0.90;99.90
21445;DHT22;10883;51.946;20.140;2023-01-25T04:24:15;0.90;99.90
21445;DHT22;10883;51.946;20.140;2023-01-25T04:26:41;0.80;99.90
21445;DHT22;10883;51.946;20.140;2023-01-25T04:29:08;0.80;99.90
21445;DHT22;10883;51.946;20.140;2023-01-25T04:31:34;0.80;99.90
21445;DHT22;10883;51.946;20.140;2023-01-25T04:34:00;0.80;99.90
21445;DHT22;10883;51.946;20.140;2023-01-25T04:36:25;0.80;99.90
21445;DHT22;10883;51.946;20.140;2023-01-25T04:38:51;0.80;99.90
21445;DHT22;10883;51.946;20.140;2023-01-25T04:41:17;0.80;99.90
21445;DHT22;10883;51.946;20.140;2023-01-25T04:43:43;0.80;99.90
21445;DHT22;10883;51.946;20.140;2023-01-25T04:46:08;0.80;99.90
21445;DHT22;10883;51.946;20.140;2023-01-25T04:48:34;0.90;99.90
21445;DHT22;10883;51.946;20.140;2023-01-25T04:51:00;0.90;99.90
21445;DHT22;10883;51.946;20.140;2023-01-25T04:53:26;0.80;99.90
21445;DHT22;10883;51.946;20.140;2023-01-25T04:55:51;0.80;99.90
21445;DHT22;10883;51.946;20.140;2023-01-25T04:58:17;0.70;99.90
21445;DHT22;10883;51.946;20.140;2023-01-25T05:00:43;0.70;99.90
21445;DHT22;10883;51.946;20.140;2023-01-25T05:03:09;0.70;99.90
21445;DHT22;10883;51.946;20.140;2023-01-25T05:05:35;0.70;99.90
21445;DHT22;10883;51.946;20.140;2023-01-25T05:08:01;0.70;99.90
21445;DHT22;10883;51.946;20.140;2023-01-25T05:10:26;0.60;99.90
21445;DHT22;10883;51.946;20.140;2023-01-25T05:12:52;0.60;99.90
21445;DHT22;10883;51.946;20.140;2023-01-25T05:15:18;0.60;99.90
21445;DHT22;10883;51.946;20.140;2023-01-25T05:17:44;0.60;99.90
21445;DHT22;10883;51.946;20.140;2023-01-25T05:20:10;0.60;99.90
21445;DHT22;10883;51.946;20.140;2023-01-25T05:22:36;0.60;99.90
21445;DHT22;10883;51.946;20.140;2023-01-25T05:25:02;0.60;99.90
21445;DHT22;10883;51.946;20.140;2023-01-25T05:27:30;0.60;99.90
21445;DHT22;10883;51.946;20.140;2023-01-25T05:29:56;0.60;99.90
21445;DHT22;10883;51.946;20.140;2023-01-25T05:32:23;0.60;99.90
21445;DHT22;10883;51.946;20.140;2023-01-25T05:34:49;0.60;99.90
21445;DHT22;10883;51.946;20.140;2023-01-25T05:37:17;0.60;99.90
21445;DHT22;10883;51.946;20.140;2023-01-25T05:39:43;0.60;99.90
21445;DHT22;10883;51.946;20.140;2023-01-25T05:42:15;0.70;99.90
21445;DHT22;10883;51.946;20.140;2023-01-25T05:44:41;0.70;99.90
21445;DHT22;10883;51.946;20.140;2023-01-25T05:47:12;0.70;99.90
21445;DHT22;10883;51.946;20.140;2023-01-25T05:49:38;0.70;99.90
21445;DHT22;10883;51.946;20.140;2023-01-25T05:52:04;0.70;99.90
21445;DHT22;10883;51.946;20.140;2023-01-25T05:54:30;0.70;99.90
21445;DHT22;10883;51.946;20.140;2023-01-25T05:56:56;0.70;99.90
21445;DHT22;10883;51.946;20.140;2023-01-25T05:59:21;0.70;99.90
21445;DHT22;10883;51.946;20.140;2023-01-25T06:01:47;0.70;99.90
21445;DHT22;10883;51.946;20.140;2023-01-25T06:04:16;0.70;99.90
21445;DHT22;10883;51.946;20.140;2023-01-25T06:06:42;0.70;99.90
21445;DHT22;10883;51.946;20.140;2023-01-25T06:09:12;0.70;99.90
21445;DHT22;10883;51.946;20.140;2023-01-25T06:11:38;0.70;99.90
21445;DHT22;10883;51.946;20.140;2023-01-25T06:14:07;0.70;99.90
21445;DHT22;10883;51.946;20.140;2023-01-25T06:16:32;0.70;99.90
21445;DHT22;10883;51.946;20.140;2023-01-25T06:18:58;0.60;99.90
21445;DHT22;10883;51.946;20.140;2023-01-25T06:21:24;0.60;99.90
21445;DHT22;10883;51.946;20.140;2023-01-25T06:23:50;0.60;99.90
21445;DHT22;10883;51.946;20.140;2023-01-25T06:26:15;0.50;99.90
21445;DHT22;10883;51.946;20.140;2023-01-25T06:28:41;0.50;99.90
21445;DHT22;10883;51.946;20.140;2023-01-25T06:33:34;0.50;99.90
21445;DHT22;10883;51.946;20.140;2023-01-25T06:36:02;0.50;99.90
21445;DHT22;10883;51.946;20.140;2023-01-25T06:38:28;0.50;99.90
21445;DHT22;10883;51.946;20.140;2023-01-25T06:41:01;0.50;99.90
21445;DHT22;10883;51.946;20.140;2023-01-25T06:43:28;0.40;99.90
21445;DHT22;10883;51.946;20.140;2023-01-25T06:46:12;0.60;99.90
21445;DHT22;10883;51.946;20.140;2023-01-25T06:48:38;0.50;99.90
21445;DHT22;10883;51.946;20.140;2023-01-25T06:51:07;0.60;99.90
21445;DHT22;10883;51.946;20.140;2023-01-25T06:53:37;0.50;99.90
21445;DHT22;10883;51.946;20.140;2023-01-25T06:56:09;0.50;99.90
21445;DHT22;10883;51.946;20.140;2023-01-25T06:58:35;0.60;99.90
21445;DHT22;10883;51.946;20.140;2023-01-25T07:01:06;0.60;99.90
21445;DHT22;10883;51.946;20.140;2023-01-25T07:03:33;0.50;99.90
21445;DHT22;10883;51.946;20.140;2023-01-25T07:06:04;0.50;99.90
21445;DHT22;10883;51.946;20.140;2023-01-25T07:08:31;0.60;99.90
21445;DHT22;10883;51.946;20.140;2023-01-25T07:10:59;0.60;99.90
21445;DHT22;10883;51.946;20.140;2023-01-25T07:13:26;0.60;99.90
21445;DHT22;10883;51.946;20.140;2023-01-25T07:16:04;0.60;99.90
21445;DHT22;10883;51.946;20.140;2023-01-25T07:18:31;0.60;99.90
21445;DHT22;10883;51.946;20.140;2023-01-25T07:21:15;0.60;99.90
21445;DHT22;10883;51.946;20.140;2023-01-25T07:23:41;0.70;99.90
21445;DHT22;10883;51.946;20.140;2023-01-25T07:26:32;0.70;99.90
21445;DHT22;10883;51.946;20.140;2023-01-25T07:28:58;0.60;99.90
21445;DHT22;10883;51.946;20.140;2023-01-25T07:31:24;0.70;99.90
21445;DHT22;10883;51.946;20.140;2023-01-25T07:33:52;0.70;99.90
21445;DHT22;10883;51.946;20.140;2023-01-25T07:36:19;0.80;99.90
21445;DHT22;10883;51.946;20.140;2023-01-25T07:38:45;0.80;99.90
21445;DHT22;10883;51.946;20.140;2023-01-25T07:41:11;0.80;99.90
21445;DHT22;10883;51.946;20.140;2023-01-25T07:43:37;0.80;99.90
21445;DHT22;10883;51.946;20.140;2023-01-25T07:46:06;0.70;99.90
21445;DHT22;10883;51.946;20.140;2023-01-25T07:48:32;0.70;99.90
21445;DHT22;10883;51.946;20.140;2023-01-25T07:50:59;0.80;99.90
21445;DHT22;10883;51.946;20.140;2023-01-25T07:53:39;0.80;99.90
21445;DHT22;10883;51.946;20.140;2023-01-25T07:56:06;0.80;99.90
21445;DHT22;10883;51.946;20.140;2023-01-25T07:58:32;0.70;99.90
21445;DHT22;10883;51.946;20.140;2023-01-25T08:01:08;0.70;99.90
21445;DHT22;10883;51.946;20.140;2023-01-25T08:03:34;0.70;99.90
21445;DHT22;10883;51.946;20.140;2023-01-25T08:06:00;0.70;99.90
21445;DHT22;10883;51.946;20.140;2023-01-25T08:08:26;0.70;99.90
21445;DHT22;10883;51.946;20.140;2023-01-25T08:10:51;0.70;99.90
21445;DHT22;10883;51.946;20.140;2023-01-25T08:13:17;0.70;99.90
21445;DHT22;10883;51.946;20.140;2023-01-25T08:15:43;0.70;99.90
21445;DHT22;10883;51.946;20.140;2023-01-25T08:18:09;0.70;99.90
21445;DHT22;10883;51.946;20.140;2023-01-25T08:20:34;0.80;99.90
21445;DHT22;10883;51.946;20.140;2023-01-25T08:23:02;0.90;99.90
21445;DHT22;10883;51.946;20.140;2023-01-25T08:25:28;1.00;99.90
21445;DHT22;10883;51.946;20.140;2023-01-25T08:27:53;0.90;99.90
21445;DHT22;10883;51.946;20.140;2023-01-25T08:30:19;1.00;99.90
21445;DHT22;10883;51.946;20.140;2023-01-25T08:32:45;1.00;99.90
21445;DHT22;10883;51.946;20.140;2023-01-25T08:35:10;1.10;99.90
21445;DHT22;10883;51.946;20.140;2023-01-25T08:37:36;1.10;99.90
21445;DHT22;10883;51.946;20.140;2023-01-25T08:40:02;1.10;99.90
21445;DHT22;10883;51.946;20.140;2023-01-25T08:42:28;1.20;99.90
21445;DHT22;10883;51.946;20.140;2023-01-25T08:44:54;1.30;99.90
21445;DHT22;10883;51.946;20.140;2023-01-25T08:47:19;1.20;99.90
21445;DHT22;10883;51.946;20.140;2023-01-25T08:49:45;1.20;99.90
21445;DHT22;10883;51.946;20.140;2023-01-25T08:52:11;1.20;99.90
21445;DHT22;10883;51.946;20.140;2023-01-25T08:54:39;1.20;99.90
21445;DHT22;10883;51.946;20.140;2023-01-25T08:57:08;1.20;99.90
21445;DHT22;10883;51.946;20.140;2023-01-25T08:59:34;1.20;99.90
21445;DHT22;10883;51.946;20.140;2023-01-25T09:02:00;1.20;99.90
21445;DHT22;10883;51.946;20.140;2023-01-25T09:04:26;1.20;99.90
21445;DHT22;10883;51.946;20.140;2023-01-25T09:06:53;1.40;99.90
21445;DHT22;10883;51.946;20.140;2023-01-25T09:09:20;1.50;99.90
21445;DHT22;10883;51.946;20.140;2023-01-25T09:11:49;1.50;99.90
21445;DHT22;10883;51.946;20.140;2023-01-25T09:14:15;1.60;99.90
21445;DHT22;10883;51.946;20.140;2023-01-25T09:16:41;1.60;99.90
21445;DHT22;10883;51.946;20.140;2023-01-25T09:19:06;1.70;99.90
21445;DHT22;10883;51.946;20.140;2023-01-25T09:21:32;1.70;99.90
21445;DHT22;10883;51.946;20.140;2023-01-25T09:23:58;1.60;99.90
21445;DHT22;10883;51.946;20.140;2023-01-25T09:26:24;1.60;99.90
21445;DHT22;10883;51.946;20.140;2023-01-25T09:28:52;1.70;99.90
21445;DHT22;10883;51.946;20.140;2023-01-25T09:31:19;1.70;99.90
21445;DHT22;10883;51.946;20.140;2023-01-25T09:33:46;1.70;99.90
21445;DHT22;10883;51.946;20.140;2023-01-25T09:36:11;1.70;99.90
21445;DHT22;10883;51.946;20.140;2023-01-25T09:38:37;1.70;99.90
21445;DHT22;10883;51.946;20.140;2023-01-25T09:49:28;1.80;99.90
21445;DHT22;10883;51.946;20.140;2023-01-25T09:52:08;1.70;99.90
21445;DHT22;10883;51.946;20.140;2023-01-25T09:54:39;1.70;99.90
21445;DHT22;10883;51.946;20.140;2023-01-25T09:57:16;1.70;99.90
21445;DHT22;10883;51.946;20.140;2023-01-25T09:59:43;1.70;99.90
21445;DHT22;10883;51.946;20.140;2023-01-25T10:04:48;1.70;99.90
21445;DHT22;10883;51.946;20.140;2023-01-25T10:07:26;1.70;99.90
21445;DHT22;10883;51.946;20.140;2023-01-25T10:10:10;1.70;99.90
21445;DHT22;10883;51.946;20.140;2023-01-25T10:12:37;1.60;99.90
21445;DHT22;10883;51.946;20.140;2023-01-25T10:15:21;1.60;99.90
21445;DHT22;10883;51.946;20.140;2023-01-25T10:26:08;1.60;99.90
21445;DHT22;10883;51.946;20.140;2023-01-25T10:28:48;1.60;99.90
21445;DHT22;10883;51.946;20.140;2023-01-25T10:31:26;1.70;99.90
21445;DHT22;10883;51.946;20.140;2023-01-25T10:33:54;1.60;99.90
21445;DHT22;10883;51.946;20.140;2023-01-25T10:36:28;1.60;99.90
21445;DHT22;10883;51.946;20.140;2023-01-25T10:38:55;1.60;99.90
21445;DHT22;10883;51.946;20.140;2023-01-25T10:41:59;1.50;99.90
21445;DHT22;10883;51.946;20.140;2023-01-25T10:44:17;1.50;99.90
21445;DHT22;10883;51.946;20.140;2023-01-25T10:47:00;1.50;99.90
21445;DHT22;10883;51.946;20.140;2023-01-25T10:54:38;1.70;99.90
21445;DHT22;10883;51.946;20.140;2023-01-25T10:57:06;1.60;99.90
21445;DHT22;10883;51.946;20.140;2023-01-25T10:59:33;1.60;99.90
21445;DHT22;10883;51.946;20.140;2023-01-25T11:07:43;1.60;99.90
21445;DHT22;10883;51.946;20.140;2023-01-25T11:10:27;1.60;99.90
21445;DHT22;10883;51.946;20.140;2023-01-25T11:15:38;1.50;99.90
21445;DHT22;10883;51.946;20.140;2023-01-25T11:18:06;1.50;99.90
21445;DHT22;10883;51.946;20.140;2023-01-25T11:20:35;1.60;99.90
21445;DHT22;10883;51.946;20.140;2023-01-25T11:23:01;1.60;99.90
21445;DHT22;10883;51.946;20.140;2023-01-25T11:25:32;1.60;99.90
21445;DHT22;10883;51.946;20.140;2023-01-25T11:28:18;1.60;99.90
21445;DHT22;10883;51.946;20.140;2023-01-25T11:30:45;1.70;99.90
21445;DHT22;10883;51.946;20.140;2023-01-25T11:33:13;1.70;99.90
21445;DHT22;10883;51.946;20.140;2023-01-25T11:36:07;1.60;99.90
21445;DHT22;10883;51.946;20.140;2023-01-25T11:38:34;1.60;99.90
21445;DHT22;10883;51.946;20.140;2023-01-25T11:43:46;1.70;99.90
21445;DHT22;10883;51.946;20.140;2023-01-25T11:46:30;1.80;99.90
21445;DHT22;10883;51.946;20.140;2023-01-25T11:57:00;1.70;99.90
21445;DHT22;10883;51.946;20.140;2023-01-25T12:05:22;1.70;99.90
21445;DHT22;10883;51.946;20.140;2023-01-25T12:22:31;1.50;99.90
21445;DHT22;10883;51.946;20.140;2023-01-25T12:28:19;1.50;99.90
21445;DHT22;10883;51.946;20.140;2023-01-25T12:31:39;1.60;99.90
21445;DHT22;10883;51.946;20.140;2023-01-25T12:33:50;1.60;99.90
21445;DHT22;10883;51.946;20.140;2023-01-25T12:36:27;1.60;99.90
21445;DHT22;10883;51.946;20.140;2023-01-25T12:39:11;1.60;99.90
21445;DHT22;10883;51.946;20.140;2023-01-25T12:41:51;1.50;99.90
21445;DHT22;10883;51.946;20.140;2023-01-25T12:46:53;1.50;99.90
21445;DHT22;10883;51.946;20.140;2023-01-25T12:49:48;1.50;99.90
21445;DHT22;10883;51.946;20.140;2023-01-25T12:55:06;1.50;99.90
21445;DHT22;10883;51.946;20.140;2023-01-25T13:05:27;1.50;99.90
21445;DHT22;10883;51.946;20.140;2023-01-25T13:10:51;1.60;99.90
21445;DHT22;10883;51.946;20.140;2023-01-25T13:13:23;1.50;99.90
21445;DHT22;10883;51.946;20.140;2023-01-25T13:15:50;1.40;99.90
21445;DHT22;10883;51.946;20.140;2023-01-25T13:20:56;1.40;99.90
21445;DHT22;10883;51.946;20.140;2023-01-25T13:23:39;1.40;99.90
21445;DHT22;10883;51.946;20.140;2023-01-25T13:28:53;1.40;99.90
21445;DHT22;10883;51.946;20.140;2023-01-25T13:37:29;1.30;99.90
21445;DHT22;10883;51.946;20.140;2023-01-25T13:39:57;1.40;99.90
21445;DHT22;10883;51.946;20.140;2023-01-25T13:42:28;1.50;99.90
21445;DHT22;10883;51.946;20.140;2023-01-25T13:44:55;1.50;99.90
21445;DHT22;10883;51.946;20.140;2023-01-25T13:47:27;1.40;99.90
21445;DHT22;10883;51.946;20.140;2023-01-25T13:50:23;1.50;99.90
21445;DHT22;10883;51.946;20.140;2023-01-25T13:55:26;1.40;99.90
21445;DHT22;10883;51.946;20.140;2023-01-25T13:57:51;1.40;99.90
21445;DHT22;10883;51.946;20.140;2023-01-25T14:00:19;1.40;99.90
21445;DHT22;10883;51.946;20.140;2023-01-25T14:02:53;1.40;99.90
21445;DHT22;10883;51.946;20.140;2023-01-25T14:05:24;1.50;99.90
21445;DHT22;10883;51.946;20.140;2023-01-25T14:07:54;1.50;99.90
21445;DHT22;10883;51.946;20.140;2023-01-25T14:10:23;1.40;99.90
21445;DHT22;10883;51.946;20.140;2023-01-25T14:12:52;1.30;99.90
21445;DHT22;10883;51.946;20.140;2023-01-25T14:15:29;1.30;99.90
21445;DHT22;10883;51.946;20.140;2023-01-25T14:18:14;1.30;99.90
21445;DHT22;10883;51.946;20.140;2023-01-25T14:20:43;1.20;99.90
21445;DHT22;10883;51.946;20.140;2023-01-25T14:23:23;1.10;99.90
21445;DHT22;10883;51.946;20.140;2023-01-25T14:25:50;1.20;99.90
21445;DHT22;10883;51.946;20.140;2023-01-25T14:28:17;1.20;99.90
21445;DHT22;10883;51.946;20.140;2023-01-25T14:30:43;1.20;99.90
21445;DHT22;10883;51.946;20.140;2023-01-25T14:33:27;1.20;99.90
21445;DHT22;10883;51.946;20.140;2023-01-25T14:35:55;1.20;99.90
21445;DHT22;10883;51.946;20.140;2023-01-25T14:38:37;1.20;99.90
21445;DHT22;10883;51.946;20.140;2023-01-25T14:41:36;1.10;99.90
21445;DHT22;10883;51.946;20.140;2023-01-25T14:44:04;1.00;99.90
21445;DHT22;10883;51.946;20.140;2023-01-25T14:46:35;0.90;99.90
21445;DHT22;10883;51.946;20.140;2023-01-25T14:54:21;1.00;99.90
21445;DHT22;10883;51.946;20.140;2023-01-25T14:56:54;1.00;99.90
21445;DHT22;10883;51.946;20.140;2023-01-25T15:07:47;1.00;99.90
21445;DHT22;10883;51.946;20.140;2023-01-25T15:10:50;1.00;99.90
21445;DHT22;10883;51.946;20.140;2023-01-25T15:13:18;0.90;99.90
21445;DHT22;10883;51.946;20.140;2023-01-25T15:18:42;0.80;99.90
21445;DHT22;10883;51.946;20.140;2023-01-25T15:21:15;0.80;99.90
21445;DHT22;10883;51.946;20.140;2023-01-25T15:23:43;0.80;99.90
21445;DHT22;10883;51.946;20.140;2023-01-25T15:26:24;0.80;99.90
21445;DHT22;10883;51.946;20.140;2023-01-25T15:28:53;0.80;99.90
21445;DHT22;10883;51.946;20.140;2023-01-25T15:31:22;0.80;99.90
21445;DHT22;10883;51.946;20.140;2023-01-25T15:33:49;0.80;99.90
21445;DHT22;10883;51.946;20.140;2023-01-25T15:36:15;0.90;99.90
21445;DHT22;10883;51.946;20.140;2023-01-25T15:38:42;0.80;99.90
21445;DHT22;10883;51.946;20.140;2023-01-25T15:41:08;0.90;99.90
21445;DHT22;10883;51.946;20.140;2023-01-25T15:43:34;0.90;99.90
21445;DHT22;10883;51.946;20.140;2023-01-25T15:46:00;0.90;99.90
21445;DHT22;10883;51.946;20.140;2023-01-25T15:48:37;0.90;99.90
21445;DHT22;10883;51.946;20.140;2023-01-25T15:51:04;0.90;99.90
21445;DHT22;10883;51.946;20.140;2023-01-25T15:53:30;0.90;99.90
21445;DHT22;10883;51.946;20.140;2023-01-25T15:56:31;0.90;99.90
21445;DHT22;10883;51.946;20.140;2023-01-25T15:59:00;0.90;99.90
21445;DHT22;10883;51.946;20.140;2023-01-25T16:01:29;0.90;99.90
21445;DHT22;10883;51.946;20.140;2023-01-25T16:03:57;0.90;99.90
21445;DHT22;10883;51.946;20.140;2023-01-25T16:08:58;0.90;99.90
21445;DHT22;10883;51.946;20.140;2023-01-25T16:11:25;0.90;99.90
21445;DHT22;10883;51.946;20.140;2023-01-25T16:13:51;1.00;99.90
21445;DHT22;10883;51.946;20.140;2023-01-25T16:16:23;0.90;99.90
21445;DHT22;10883;51.946;20.140;2023-01-25T16:18:50;0.90;99.90
21445;DHT22;10883;51.946;20.140;2023-01-25T16:21:16;0.90;99.90
21445;DHT22;10883;51.946;20.140;2023-01-25T16:23:41;0.80;99.90
21445;DHT22;10883;51.946;20.140;2023-01-25T16:26:20;0.80;99.90
21445;DHT22;10883;51.946;20.140;2023-01-25T16:28:47;0.70;99.90
21445;DHT22;10883;51.946;20.140;2023-01-25T16:31:14;0.70;99.90
21445;DHT22;10883;51.946;20.140;2023-01-25T16:33:40;0.70;99.90
21445;DHT22;10883;51.946;20.140;2023-01-25T16:36:14;0.70;99.90
21445;DHT22;10883;51.946;20.140;2023-01-25T16:38:41;0.80;99.90
21445;DHT22;10883;51.946;20.140;2023-01-25T16:41:07;0.80;99.90
21445;DHT22;10883;51.946;20.140;2023-01-25T16:43:44;0.80;99.90
21445;DHT22;10883;51.946;20.140;2023-01-25T16:46:21;0.90;99.90
21445;DHT22;10883;51.946;20.140;2023-01-25T16:48:49;0.90;99.90
21445;DHT22;10883;51.946;20.140;2023-01-25T16:51:22;0.90;99.90
21445;DHT22;10883;51.946;20.140;2023-01-25T16:53:51;0.90;99.90
21445;DHT22;10883;51.946;20.140;2023-01-25T16:56:22;0.90;99.90
21445;DHT22;10883;51.946;20.140;2023-01-25T16:58:49;0.90;99.90
21445;DHT22;10883;51.946;20.140;2023-01-25T17:01:16;0.90;99.90
21445;DHT22;10883;51.946;20.140;2023-01-25T17:03:43;0.90;99.90
21445;DHT22;10883;51.946;20.140;2023-01-25T17:06:18;1.00;99.90
21445;DHT22;10883;51.946;20.140;2023-01-25T17:08:46;1.00;99.90
21445;DHT22;10883;51.946;20.140;2023-01-25T17:11:12;0.90;99.90
21445;DHT22;10883;51.946;20.140;2023-01-25T17:13:37;0.90;99.90
21445;DHT22;10883;51.946;20.140;2023-01-25T17:16:03;1.00;99.90
21445;DHT22;10883;51.946;20.140;2023-01-25T17:18:29;1.00;99.90
21445;DHT22;10883;51.946;20.140;2023-01-25T17:21:05;1.00;99.90
21445;DHT22;10883;51.946;20.140;2023-01-25T17:23:33;1.00;99.90
21445;DHT22;10883;51.946;20.140;2023-01-25T17:26:11;1.00;99.90
21445;DHT22;10883;51.946;20.140;2023-01-25T17:28:37;1.00;99.90
21445;DHT22;10883;51.946;20.140;2023-01-25T17:31:03;1.10;99.90
21445;DHT22;10883;51.946;20.140;2023-01-25T17:33:29;1.10;99.90
21445;DHT22;10883;51.946;20.140;2023-01-25T17:35:55;1.10;99.90
21445;DHT22;10883;51.946;20.140;2023-01-25T17:38:26;1.10;99.90
21445;DHT22;10883;51.946;20.140;2023-01-25T17:40:52;1.10;99.90
21445;DHT22;10883;51.946;20.140;2023-01-25T17:43:19;1.10;99.90
21445;DHT22;10883;51.946;20.140;2023-01-25T17:45:45;1.10;99.90
21445;DHT22;10883;51.946;20.140;2023-01-25T17:48:11;1.10;99.90
21445;DHT22;10883;51.946;20.140;2023-01-25T17:50:38;1.10;99.90
21445;DHT22;10883;51.946;20.140;2023-01-25T17:53:05;1.10;99.90
21445;DHT22;10883;51.946;20.140;2023-01-25T17:55:34;1.10;99.90